createdAt,value
2019-04-23T00:02:25.163Z,10.22
2019-04-23T00:17:43.751Z,9.66
2019-04-23T00:22:43.532Z,9.57
2019-04-23T00:27:50.082Z,9.66
2019-04-23T00:32:51.661Z,9.71
2019-04-23T00:38:02.235Z,9.73
2019-04-23T00:43:03.504Z,9.62
2019-04-23T00:48:02.290Z,9.65
2019-04-23T00:53:12.705Z,9.53
2019-04-23T01:03:17.258Z,9.35
2019-04-23T01:23:31.983Z,9.20
2019-04-23T01:29:01.729Z,9.18
2019-04-23T01:33:56.577Z,9.02
2019-04-23T01:39:06.252Z,8.94
2019-04-23T01:44:07.472Z,8.72
2019-04-23T01:49:18.286Z,8.70
2019-04-23T01:54:24.110Z,8.76
2019-04-23T01:59:38.590Z,8.81
2019-04-23T02:09:36.408Z,8.82
2019-04-23T02:14:37.557Z,8.69
2019-04-23T02:19:46.654Z,8.75
2019-04-23T02:24:47.679Z,8.66
2019-04-23T02:50:34.721Z,9.00
2019-04-23T02:55:17.741Z,8.94
2019-04-23T03:00:28.782Z,8.67
2019-04-23T03:20:59.856Z,8.52
2019-04-23T03:26:25.470Z,8.46
2019-04-23T03:46:36.663Z,8.17
2019-04-23T03:51:37.539Z,8.12
2019-04-23T04:01:48.734Z,7.93
2019-04-23T04:06:48.295Z,7.69
2019-04-23T04:11:50.627Z,7.70
2019-04-23T04:22:08.728Z,7.16
2019-04-23T04:27:05.622Z,7.24
2019-04-23T04:32:06.093Z,7.14
2019-04-23T04:47:33.866Z,6.91
2019-04-23T05:18:09.961Z,6.19
2019-04-23T05:23:15.764Z,6.00
2019-04-23T05:43:19.272Z,6.10
2019-04-23T05:48:23.513Z,6.13
2019-04-23T05:53:27.220Z,6.59
2019-04-23T06:03:41.918Z,6.71
2019-04-23T06:08:39.070Z,6.79
2019-04-23T06:13:58.339Z,6.63
2019-04-23T06:18:59.249Z,6.58
2019-04-23T06:24:07.562Z,6.52
2019-04-23T06:28:59.415Z,6.16
2019-04-23T06:34:03.808Z,6.12
2019-04-23T06:39:10.283Z,5.99
2019-04-23T06:49:24.695Z,6.70
2019-04-23T06:54:25.151Z,6.51
2019-04-23T07:04:39.366Z,6.63
2019-04-23T07:09:35.381Z,6.60
2019-04-23T07:14:53.923Z,6.67
2019-04-23T07:24:47.273Z,6.50
2019-04-23T07:35:04.526Z,6.31
2019-04-23T07:40:31.204Z,6.44
2019-04-23T07:45:32.569Z,6.30
2019-04-23T07:50:39.270Z,6.09
2019-04-23T08:00:57.076Z,6.15
2019-04-23T08:05:42.467Z,6.21
2019-04-23T08:21:15.169Z,6.91
2019-04-23T08:26:34.259Z,6.97
2019-04-23T08:31:35.091Z,6.73
2019-04-23T08:36:34.463Z,6.75
2019-04-23T08:41:44.616Z,6.44
2019-04-23T08:47:15.602Z,6.68
2019-04-23T08:57:14.513Z,7.06
2019-04-23T09:03:00.909Z,7.24
2019-04-23T09:07:22.351Z,7.59
2019-04-23T09:12:31.686Z,7.92
2019-04-23T09:17:37.619Z,7.62
2019-04-23T09:22:37.273Z,7.48
2019-04-23T09:27:52.922Z,7.29
2019-04-23T09:32:58.852Z,7.17
2019-04-23T09:38:07.057Z,7.30
2019-04-23T09:43:14.331Z,7.41
2019-04-23T09:48:11.589Z,7.59
2019-04-23T09:53:25.277Z,7.85
2019-04-23T09:58:34.602Z,7.90
2019-04-23T10:03:19.583Z,7.89
2019-04-23T10:08:17.462Z,7.98
2019-04-23T10:13:11.634Z,7.89
2019-04-23T10:18:14.211Z,8.01
2019-04-23T10:23:16.607Z,8.27
2019-04-23T10:28:36.020Z,8.52
2019-04-23T10:33:39.823Z,8.59
2019-04-23T10:38:53.961Z,8.29
2019-04-23T10:43:52.359Z,8.50
2019-04-23T10:49:42.456Z,8.61
2019-04-23T11:10:51.237Z,9.64
2019-04-23T11:14:58.184Z,9.60
2019-04-23T11:20:08.995Z,9.67
2019-04-23T11:25:12.106Z,9.73
2019-04-23T11:30:19.134Z,9.47
2019-04-23T11:35:26.178Z,9.27
2019-04-23T11:40:21.251Z,9.43
2019-04-23T11:45:36.328Z,9.49
2019-04-23T11:50:41.220Z,9.42
2019-04-23T11:55:39.847Z,9.34
2019-04-23T12:00:49.138Z,9.18
2019-04-23T12:05:54.327Z,9.19
2019-04-23T12:11:00.221Z,9.29
2019-04-23T12:15:53.954Z,9.72
2019-04-23T12:21:06.661Z,9.95
2019-04-23T12:26:12.540Z,10.06
2019-04-23T12:31:15.952Z,10.12
2019-04-23T12:36:37.722Z,10.19
2019-04-23T12:41:41.627Z,10.17
2019-04-23T12:51:49.611Z,9.78
2019-04-23T12:56:58.998Z,9.75
2019-04-23T13:01:55.633Z,10.13
2019-04-23T13:07:03.280Z,10.46
2019-04-23T13:11:58.034Z,10.73
2019-04-23T13:17:11.733Z,10.69
2019-04-23T13:27:26.127Z,10.81
2019-04-23T13:32:20.965Z,10.84
2019-04-23T13:37:29.251Z,10.50
2019-04-23T13:42:45.120Z,10.56
2019-04-23T13:47:58.542Z,10.39
2019-04-23T13:58:02.345Z,10.26
2019-04-23T14:02:45.154Z,10.28
2019-04-23T14:07:54.856Z,10.07
2019-04-23T14:13:55.193Z,9.98
2019-04-23T14:18:19.493Z,9.98
2019-04-23T14:33:17.792Z,10.50
2019-04-23T14:38:27.489Z,10.41
2019-04-23T14:43:22.534Z,10.50
2019-04-23T14:48:28.428Z,10.62
2019-04-23T15:08:50.069Z,10.26
2019-04-23T15:13:49.966Z,10.40
2019-04-23T15:24:30.519Z,10.40
2019-04-23T15:29:02.894Z,10.49
2019-04-23T15:39:31.317Z,10.29
2019-04-23T15:44:39.432Z,10.39
2019-04-23T15:54:42.893Z,10.42
2019-04-23T15:59:48.186Z,10.35
2019-04-23T16:04:24.032Z,10.33
2019-04-23T16:10:04.212Z,10.17
2019-04-23T16:15:03.026Z,10.19
2019-04-23T16:20:15.080Z,10.14
2019-04-23T16:25:17.415Z,9.87
2019-04-23T16:30:14.263Z,9.93
2019-04-23T16:35:28.928Z,9.84
2019-04-23T16:40:32.828Z,9.90
2019-04-23T16:45:31.677Z,9.92
2019-04-23T16:50:41.334Z,9.80
2019-04-23T16:55:37.924Z,9.73
2019-04-23T17:00:51.188Z,9.79
2019-04-23T17:05:53.715Z,9.81
2019-04-23T17:16:06.623Z,9.93
2019-04-23T17:20:56.379Z,9.89
2019-04-23T17:26:10.982Z,9.82
2019-04-23T17:31:26.297Z,9.83
2019-04-23T17:36:30.735Z,9.84
2019-04-23T17:42:09.220Z,9.80
2019-04-23T17:47:07.213Z,9.66
2019-04-23T17:52:14.307Z,9.48
2019-04-23T17:57:16.934Z,9.38
2019-04-23T18:02:48.258Z,9.17
2019-04-23T18:07:36.203Z,9.22
2019-04-23T18:22:40.894Z,9.42
2019-04-23T18:27:42.518Z,9.34
2019-04-23T18:38:09.748Z,9.50
2019-04-23T18:43:13.689Z,9.52
2019-04-23T18:48:42.228Z,9.44
2019-04-23T18:58:52.198Z,9.34
2019-04-23T19:03:57.480Z,9.45
2019-04-23T19:14:11.156Z,9.42
2019-04-23T19:19:11.266Z,9.40
2019-04-23T19:24:17.096Z,9.33
2019-04-23T19:39:29.573Z,9.43
2019-04-23T19:49:38.816Z,9.36
2019-04-23T19:59:51.070Z,9.28
2019-04-23T20:09:51.622Z,9.27
2019-04-23T20:14:56.164Z,9.30
2019-04-23T20:20:02.892Z,9.18
2019-04-23T20:30:54.049Z,9.23
2019-04-23T20:35:34.756Z,9.38
2019-04-23T20:40:49.749Z,9.35
2019-04-23T20:45:46.736Z,9.20
2019-04-23T20:50:44.432Z,9.15
2019-04-23T21:01:23.785Z,9.16
2019-04-23T21:06:14.751Z,9.09
2019-04-23T21:11:28.617Z,9.11
2019-04-23T21:16:31.049Z,9.13
2019-04-23T21:21:33.573Z,9.12
2019-04-23T21:26:37.114Z,9.06
2019-04-23T21:31:53.855Z,9.18
2019-04-23T21:36:38.765Z,9.17
2019-04-23T21:56:54.134Z,8.94
2019-04-23T22:02:03.513Z,9.08
2019-04-23T22:07:33.239Z,9.21
2019-04-23T22:12:08.481Z,9.34
2019-04-23T22:17:15.114Z,9.09
2019-04-23T22:22:17.025Z,8.98
2019-04-23T22:27:16.150Z,9.03
2019-04-23T22:32:36.552Z,9.00
2019-04-23T22:37:35.421Z,8.85
2019-04-23T22:47:47.741Z,8.56
2019-04-23T22:52:48.571Z,7.98
2019-04-23T23:03:06.309Z,7.88
2019-04-23T23:18:14.019Z,7.45
2019-04-23T23:28:22.367Z,7.34
2019-04-23T23:33:27.152Z,7.55
2019-04-23T23:38:33.011Z,7.62
2019-04-23T23:48:39.298Z,7.74
2019-04-23T23:53:51.770Z,7.76
2019-04-23T23:58:51.944Z,7.80
